createdAt,value
2024-02-21T00:00:02.999Z,9.18
2024-02-21T00:03:06.126Z,9.23
2024-02-21T00:06:08.829Z,9.25
2024-02-21T00:09:12.821Z,9.22
2024-02-21T00:12:16.093Z,9.22
2024-02-21T00:15:18.776Z,9.21
2024-02-21T00:18:21.536Z,9.24
2024-02-21T00:21:24.205Z,9.26
2024-02-21T00:24:28.181Z,9.27
2024-02-21T00:27:31.085Z,9.29
2024-02-21T00:30:33.784Z,9.24
2024-02-21T00:33:36.463Z,9.31
2024-02-21T00:36:39.172Z,9.33
2024-02-21T00:39:43.544Z,9.35
2024-02-21T00:42:46.933Z,9.38
2024-02-21T00:45:49.595Z,9.39
2024-02-21T00:48:52.385Z,9.43
2024-02-21T00:51:55.274Z,9.44
2024-02-21T00:54:59.305Z,9.48
2024-02-21T00:58:02.006Z,9.55
2024-02-21T01:01:05.237Z,9.56
2024-02-21T01:04:07.904Z,9.58
2024-02-21T01:07:10.706Z,9.60
2024-02-21T01:10:15.043Z,9.66
2024-02-21T01:13:17.772Z,9.68
2024-02-21T01:16:20.560Z,9.67
2024-02-21T01:19:23.402Z,9.75
2024-02-21T01:22:26.222Z,9.78
2024-02-21T01:25:30.360Z,9.79
2024-02-21T01:28:33.265Z,9.81
2024-02-21T01:31:36.072Z,9.83
2024-02-21T01:34:39.093Z,9.84
2024-02-21T01:37:41.908Z,9.83
2024-02-21T01:40:46.634Z,9.86
2024-02-21T01:43:49.386Z,9.86
2024-02-21T01:46:52.836Z,9.87
2024-02-21T01:49:55.622Z,9.88
2024-02-21T01:52:58.861Z,9.89
2024-02-21T01:56:03.835Z,9.89
2024-02-21T01:59:06.753Z,9.86
2024-02-21T02:02:09.485Z,9.77
2024-02-21T02:05:13.216Z,9.81
2024-02-21T02:08:16.306Z,9.73
2024-02-21T02:11:21.343Z,9.72
2024-02-21T02:14:24.002Z,9.71
2024-02-21T02:17:27.243Z,9.70
2024-02-21T02:20:30.189Z,9.67
2024-02-21T02:23:34.701Z,9.66
2024-02-21T02:26:37.498Z,9.64
2024-02-21T02:29:40.239Z,9.66
2024-02-21T02:32:46.800Z,9.61
2024-02-21T02:35:49.581Z,9.57
2024-02-21T02:38:53.570Z,9.28
2024-02-21T02:41:56.269Z,9.52
2024-02-21T02:44:58.974Z,9.47
2024-02-21T02:48:02.062Z,9.49
2024-02-21T02:51:05.330Z,9.44
2024-02-21T02:54:09.318Z,9.46
2024-02-21T02:57:11.981Z,9.47
2024-02-21T03:00:16.535Z,9.29
2024-02-21T03:03:19.207Z,9.45
2024-02-21T03:06:22.006Z,9.46
2024-02-21T03:09:25.977Z,9.39
2024-02-21T03:12:30.242Z,9.36
2024-02-21T03:15:32.946Z,9.31
2024-02-21T03:18:35.727Z,9.29
2024-02-21T03:21:38.421Z,9.27
2024-02-21T03:24:42.402Z,9.22
2024-02-21T03:27:45.361Z,9.18
2024-02-21T03:30:48.024Z,9.15
2024-02-21T03:33:50.661Z,9.11
2024-02-21T03:36:53.420Z,9.06
2024-02-21T03:39:57.407Z,9.02
2024-02-21T03:43:00.177Z,8.69
2024-02-21T03:46:03.401Z,8.81
2024-02-21T03:49:06.053Z,8.90
2024-02-21T03:52:09.378Z,8.87
2024-02-21T03:55:13.493Z,8.82
2024-02-21T03:58:16.228Z,8.74
2024-02-21T04:01:19.074Z,8.68
2024-02-21T04:04:22.313Z,8.60
2024-02-21T04:07:30.480Z,8.52
2024-02-21T04:10:34.620Z,8.43
2024-02-21T04:13:37.337Z,8.34
2024-02-21T04:16:40.822Z,8.22
2024-02-21T04:19:44.024Z,8.22
2024-02-21T04:22:47.122Z,8.16
2024-02-21T04:25:51.238Z,8.20
2024-02-21T04:28:54.167Z,8.16
2024-02-21T04:31:56.963Z,8.16
2024-02-21T04:35:00.109Z,8.00
2024-02-21T04:38:03.000Z,8.23
2024-02-21T04:41:07.276Z,8.30
2024-02-21T04:44:10.008Z,8.26
2024-02-21T04:47:12.777Z,8.36
2024-02-21T04:50:16.030Z,8.36
2024-02-21T04:53:18.731Z,8.35
2024-02-21T04:56:22.810Z,8.51
2024-02-21T04:59:25.457Z,8.53
2024-02-21T05:02:28.237Z,8.53
2024-02-21T05:05:31.209Z,8.56
2024-02-21T05:08:34.302Z,8.56
2024-02-21T05:11:38.981Z,8.56
2024-02-21T05:14:41.715Z,8.48
2024-02-21T05:17:44.741Z,8.41
2024-02-21T05:20:47.520Z,8.08
2024-02-21T05:23:50.684Z,8.15
2024-02-21T05:26:55.801Z,7.94
2024-02-21T05:29:59.623Z,7.81
2024-02-21T05:33:06.761Z,7.67
2024-02-21T05:36:09.701Z,7.57
2024-02-21T05:39:12.342Z,7.50
2024-02-21T05:42:16.358Z,7.42
2024-02-21T05:45:19.056Z,7.33
2024-02-21T05:48:22.203Z,7.26
2024-02-21T05:51:25.100Z,7.19
2024-02-21T05:54:27.730Z,7.15
2024-02-21T05:57:31.791Z,7.13
2024-02-21T06:00:34.888Z,7.00
2024-02-21T06:03:38.244Z,7.01
2024-02-21T06:06:40.965Z,6.77
2024-02-21T06:09:43.829Z,6.91
2024-02-21T06:12:47.819Z,6.82
2024-02-21T06:15:51.328Z,6.81
2024-02-21T06:18:54.231Z,6.78
2024-02-21T06:21:57.221Z,6.77
2024-02-21T06:24:59.913Z,6.79
2024-02-21T06:28:04.266Z,6.80
2024-02-21T06:31:07.014Z,6.86
2024-02-21T06:34:09.925Z,6.92
2024-02-21T06:37:12.795Z,7.00
2024-02-21T06:40:15.637Z,7.05
2024-02-21T06:43:21.033Z,7.09
2024-02-21T06:46:27.547Z,7.22
2024-02-21T06:49:30.443Z,7.29
2024-02-21T06:52:33.280Z,7.30
2024-02-21T06:55:36.307Z,7.36
2024-02-21T06:58:40.376Z,7.35
2024-02-21T07:01:47.260Z,7.30
2024-02-21T07:04:50.798Z,7.31
2024-02-21T07:07:53.679Z,7.28
2024-02-21T07:10:56.857Z,7.25
2024-02-21T07:14:01.114Z,7.25
2024-02-21T07:17:04.750Z,7.25
2024-02-21T07:20:09.049Z,7.27
2024-02-21T07:23:11.907Z,7.34
2024-02-21T07:26:15.066Z,7.41
2024-02-21T07:29:19.220Z,7.33
2024-02-21T07:32:21.974Z,7.44
2024-02-21T07:35:24.814Z,7.42
2024-02-21T07:38:27.596Z,7.49
2024-02-21T07:41:31.776Z,7.54
2024-02-21T07:44:35.869Z,7.62
2024-02-21T07:47:39.296Z,7.45
2024-02-21T07:50:41.944Z,7.78
2024-02-21T07:53:45.989Z,7.85
2024-02-21T07:56:48.727Z,7.94
2024-02-21T07:59:53.431Z,8.04
2024-02-21T08:02:56.062Z,8.17
2024-02-21T08:05:58.856Z,8.26
2024-02-21T08:09:01.782Z,8.35
2024-02-21T08:12:04.884Z,8.48
2024-02-21T08:15:11.922Z,8.61
2024-02-21T08:18:14.698Z,8.64
2024-02-21T08:21:17.885Z,8.92
2024-02-21T08:24:20.548Z,9.07
2024-02-21T08:27:23.337Z,9.09
2024-02-21T08:30:27.534Z,9.39
2024-02-21T08:33:31.188Z,9.53
2024-02-21T08:36:35.129Z,9.52
2024-02-21T08:39:37.763Z,9.86
2024-02-21T08:42:41.600Z,9.84
2024-02-21T08:45:45.627Z,10.08
2024-02-21T08:48:49.045Z,10.23
2024-02-21T08:51:52.134Z,10.31
2024-02-21T08:54:54.874Z,10.48
2024-02-21T08:57:57.531Z,10.59
2024-02-21T09:01:01.644Z,10.69
2024-02-21T09:04:04.502Z,10.75
2024-02-21T09:07:07.335Z,10.80
2024-02-21T09:10:11.317Z,10.82
2024-02-21T09:13:13.983Z,10.89
2024-02-21T09:16:17.995Z,10.95
2024-02-21T09:19:20.811Z,11.01
2024-02-21T09:22:23.559Z,11.05
2024-02-21T09:25:26.344Z,11.09
2024-02-21T09:28:29.114Z,11.13
2024-02-21T09:31:33.255Z,11.15
2024-02-21T09:34:36.339Z,11.15
2024-02-21T09:37:39.503Z,11.27
2024-02-21T09:40:43.797Z,11.35
2024-02-21T09:43:47.576Z,11.36
2024-02-21T09:46:57.097Z,11.47
2024-02-21T09:50:00.370Z,11.55
2024-02-21T09:53:04.151Z,11.61
2024-02-21T09:56:13.191Z,11.61
2024-02-21T09:59:18.608Z,11.66
2024-02-21T10:02:23.143Z,11.91
2024-02-21T10:05:26.844Z,12.00
2024-02-21T10:08:29.700Z,12.07
2024-02-21T10:11:32.541Z,12.13
2024-02-21T10:14:35.349Z,12.16
2024-02-21T10:17:39.402Z,12.19
2024-02-21T10:20:42.106Z,12.23
2024-02-21T10:23:46.325Z,12.31
2024-02-21T10:26:49.531Z,12.39
2024-02-21T10:29:52.911Z,12.43
2024-02-21T10:32:57.298Z,12.50
2024-02-21T10:36:08.985Z,12.64
2024-02-21T10:39:11.726Z,12.75
2024-02-21T10:42:14.691Z,12.89
2024-02-21T10:45:18.285Z,13.05
2024-02-21T10:48:31.167Z,13.16
2024-02-21T10:51:37.101Z,13.27
2024-02-21T10:54:47.775Z,13.43
2024-02-21T10:57:51.917Z,13.54
2024-02-21T11:00:55.196Z,13.53
2024-02-21T11:04:02.477Z,13.43
2024-02-21T11:07:10.750Z,13.56
2024-02-21T11:10:24.885Z,13.72
2024-02-21T11:13:33.512Z,13.69
2024-02-21T11:16:41.239Z,13.69
2024-02-21T11:19:45.901Z,13.73
2024-02-21T11:22:50.377Z,13.85
2024-02-21T11:25:53.281Z,13.84
2024-02-21T11:29:00.790Z,13.95
2024-02-21T11:32:04.848Z,14.06
2024-02-21T11:35:10.011Z,14.14
2024-02-21T11:38:16.602Z,14.20
2024-02-21T11:41:19.457Z,14.29
2024-02-21T11:44:22.223Z,14.41
2024-02-21T11:47:25.557Z,14.50
2024-02-21T11:50:29.797Z,14.57
2024-02-21T11:53:36.130Z,14.53
2024-02-21T11:56:41.207Z,14.57
2024-02-21T11:59:43.895Z,14.63
2024-02-21T12:02:47.267Z,14.64
2024-02-21T12:05:52.107Z,14.60
2024-02-21T12:09:00.202Z,14.52
2024-02-21T12:12:06.092Z,14.43
2024-02-21T12:15:10.089Z,13.95
2024-02-21T12:18:13.324Z,14.55
2024-02-21T12:21:18.035Z,14.73
2024-02-21T12:24:24.990Z,14.80
2024-02-21T12:27:27.744Z,14.95
2024-02-21T12:30:31.957Z,14.99
2024-02-21T12:33:34.800Z,15.03
2024-02-21T12:36:43.996Z,14.76
2024-02-21T12:39:46.658Z,14.98
2024-02-21T12:42:49.415Z,14.99
2024-02-21T12:45:52.071Z,15.03
2024-02-21T12:48:54.867Z,15.06
2024-02-21T12:51:59.067Z,15.14
2024-02-21T12:55:01.717Z,15.13
2024-02-21T12:58:06.694Z,15.07
2024-02-21T13:01:10.282Z,15.04
2024-02-21T13:04:13.195Z,15.07
2024-02-21T13:07:17.732Z,14.83
2024-02-21T13:10:20.733Z,15.25
2024-02-21T13:13:23.647Z,15.30
2024-02-21T13:16:27.541Z,15.28
2024-02-21T13:19:30.638Z,15.22
2024-02-21T13:22:34.949Z,15.13
2024-02-21T13:25:37.697Z,15.11
2024-02-21T13:28:40.490Z,15.06
2024-02-21T13:31:43.344Z,15.00
2024-02-21T13:34:46.246Z,14.98
2024-02-21T13:37:51.426Z,14.98
2024-02-21T13:40:55.055Z,14.97
2024-02-21T13:43:57.800Z,14.93
2024-02-21T13:47:00.536Z,14.87
2024-02-21T13:50:05.634Z,14.81
2024-02-21T13:53:10.600Z,14.67
2024-02-21T13:56:13.688Z,14.49
2024-02-21T13:59:18.542Z,14.68
2024-02-21T14:02:21.379Z,14.62
2024-02-21T14:05:24.327Z,14.61
2024-02-21T14:08:28.387Z,14.60
2024-02-21T14:11:31.736Z,14.64
2024-02-21T14:14:36.783Z,14.58
2024-02-21T14:17:41.247Z,14.57
2024-02-21T14:20:43.982Z,14.52
2024-02-21T14:23:48.024Z,14.53
2024-02-21T14:26:50.808Z,14.51
2024-02-21T14:29:54.600Z,14.63
2024-02-21T14:32:57.514Z,14.66
2024-02-21T14:36:00.406Z,14.66
2024-02-21T14:39:05.996Z,14.51
2024-02-21T14:42:10.650Z,14.61
2024-02-21T14:45:15.194Z,14.62
2024-02-21T14:48:18.573Z,14.65
2024-02-21T14:51:21.481Z,14.70
2024-02-21T14:54:25.453Z,14.71
2024-02-21T14:57:28.646Z,14.67
2024-02-21T15:00:32.079Z,14.58
2024-02-21T15:03:35.148Z,14.54
2024-02-21T15:06:38.514Z,14.49
2024-02-21T15:09:43.391Z,14.52
2024-02-21T15:12:46.470Z,14.49
2024-02-21T15:15:50.024Z,14.44
2024-02-21T15:18:52.790Z,14.36
2024-02-21T15:21:55.521Z,14.24
2024-02-21T15:24:59.713Z,14.09
2024-02-21T15:28:03.814Z,13.98
2024-02-21T15:31:06.514Z,13.87
2024-02-21T15:34:09.294Z,13.80
2024-02-21T15:37:12.776Z,13.71
2024-02-21T15:40:17.150Z,13.56
2024-02-21T15:43:19.864Z,13.48
2024-02-21T15:46:22.527Z,13.38
2024-02-21T15:49:26.188Z,13.31
2024-02-21T15:52:29.115Z,13.21
2024-02-21T15:55:33.316Z,13.14
2024-02-21T15:58:36.066Z,13.05
2024-02-21T16:01:39.957Z,13.01
2024-02-21T16:04:43.371Z,12.42
2024-02-21T16:07:46.152Z,12.85
2024-02-21T16:10:50.484Z,12.78
2024-02-21T16:13:53.943Z,12.71
2024-02-21T16:16:58.232Z,12.67
2024-02-21T16:20:01.923Z,12.61
2024-02-21T16:23:05.758Z,12.56
2024-02-21T16:26:11.266Z,12.53
2024-02-21T16:29:14.949Z,12.49
2024-02-21T16:32:18.747Z,12.42
2024-02-21T16:35:21.739Z,12.36
2024-02-21T16:38:27.720Z,12.29
2024-02-21T16:41:31.770Z,12.24
2024-02-21T16:44:34.609Z,12.17
2024-02-21T16:47:37.406Z,12.10
2024-02-21T16:50:48.886Z,12.04
2024-02-21T16:53:56.094Z,12.01
2024-02-21T16:57:00.673Z,11.93
2024-02-21T17:00:06.430Z,11.90
2024-02-21T17:03:11.638Z,11.88
2024-02-21T17:06:17.303Z,11.85
2024-02-21T17:09:21.618Z,11.76
2024-02-21T17:12:25.620Z,11.76
2024-02-21T17:15:28.301Z,11.74
2024-02-21T17:18:31.006Z,11.68
2024-02-21T17:21:33.838Z,11.63
2024-02-21T17:24:36.813Z,11.57
2024-02-21T17:27:40.887Z,11.52
2024-02-21T17:30:44.398Z,11.49
2024-02-21T17:33:47.449Z,11.44
2024-02-21T17:36:50.285Z,11.39
2024-02-21T17:39:53.983Z,11.37
2024-02-21T17:42:58.529Z,11.32
2024-02-21T17:46:02.639Z,11.29
2024-02-21T17:49:05.466Z,11.33
2024-02-21T17:52:08.180Z,11.30
2024-02-21T17:55:13.462Z,11.25
2024-02-21T17:58:17.841Z,11.25
2024-02-21T18:01:20.660Z,11.25
2024-02-21T18:04:24.473Z,11.18
2024-02-21T18:07:27.433Z,11.23
2024-02-21T18:10:32.501Z,11.22
2024-02-21T18:13:36.580Z,11.18
2024-02-21T18:16:40.133Z,11.11
2024-02-21T18:19:43.610Z,11.14
2024-02-21T18:22:46.388Z,11.09
2024-02-21T18:25:49.461Z,11.11
2024-02-21T18:28:53.892Z,11.07
2024-02-21T18:31:56.648Z,11.07
2024-02-21T18:34:59.815Z,11.09
2024-02-21T18:38:03.319Z,11.09
2024-02-21T18:41:09.108Z,11.04
2024-02-21T18:44:14.445Z,11.04
2024-02-21T18:47:17.223Z,10.73
2024-02-21T18:50:20.209Z,11.00
2024-02-21T18:53:22.971Z,11.00
2024-02-21T18:56:29.412Z,10.93
2024-02-21T18:59:33.693Z,10.88
2024-02-21T19:02:36.330Z,10.88
2024-02-21T19:05:39.122Z,10.86
2024-02-21T19:08:41.873Z,10.94
2024-02-21T19:11:44.683Z,10.86
2024-02-21T19:14:48.865Z,10.74
2024-02-21T19:17:51.634Z,10.67
2024-02-21T19:20:54.532Z,10.67
2024-02-21T19:23:57.222Z,10.74
2024-02-21T19:26:59.984Z,10.73
2024-02-21T19:30:04.125Z,10.68
2024-02-21T19:33:08.225Z,10.73
2024-02-21T19:36:11.287Z,10.64
2024-02-21T19:39:14.048Z,10.54
2024-02-21T19:42:16.706Z,10.50
2024-02-21T19:45:20.849Z,10.38
2024-02-21T19:48:25.594Z,10.41
2024-02-21T19:51:29.197Z,10.46
2024-02-21T19:54:31.845Z,10.49
2024-02-21T19:57:34.533Z,10.46
2024-02-21T20:00:39.338Z,10.41
2024-02-21T20:03:42.149Z,10.38
2024-02-21T20:06:45.718Z,10.45
2024-02-21T20:09:49.605Z,10.41
2024-02-21T20:12:52.798Z,10.44
2024-02-21T20:15:56.918Z,10.42
2024-02-21T20:18:59.665Z,10.24
2024-02-21T20:22:02.584Z,10.30
2024-02-21T20:25:06.163Z,10.33
2024-02-21T20:28:09.449Z,10.31
2024-02-21T20:31:19.911Z,9.47
2024-02-21T20:34:25.497Z,10.37
2024-02-21T20:37:28.781Z,10.36
2024-02-21T20:40:31.748Z,10.40
2024-02-21T20:43:34.880Z,10.37
2024-02-21T20:46:39.109Z,10.50
2024-02-21T20:49:41.826Z,10.63
2024-02-21T20:52:45.762Z,10.78
2024-02-21T20:55:48.495Z,10.95
2024-02-21T20:58:52.002Z,11.07
2024-02-21T21:02:02.632Z,11.15
2024-02-21T21:05:08.807Z,11.29
2024-02-21T21:08:12.198Z,11.34
2024-02-21T21:11:15.524Z,11.02
2024-02-21T21:14:18.573Z,11.11
2024-02-21T21:17:23.201Z,11.46
2024-02-21T21:20:30.046Z,11.48
2024-02-21T21:23:33.210Z,11.51
2024-02-21T21:26:36.408Z,11.52
2024-02-21T21:29:39.210Z,11.54
2024-02-21T21:32:44.045Z,11.47
2024-02-21T21:35:48.392Z,11.59
2024-02-21T21:38:51.391Z,11.52
2024-02-21T21:41:54.282Z,11.52
2024-02-21T21:44:56.951Z,11.53
2024-02-21T21:48:01.595Z,11.47
2024-02-21T21:51:04.859Z,11.49
2024-02-21T21:54:07.609Z,11.42
2024-02-21T21:57:10.343Z,11.40
2024-02-21T22:00:14.106Z,11.33
2024-02-21T22:03:20.036Z,11.33
2024-02-21T22:06:22.789Z,11.29
2024-02-21T22:09:25.717Z,11.17
2024-02-21T22:12:28.656Z,11.21
2024-02-21T22:15:31.618Z,11.20
2024-02-21T22:18:35.706Z,11.12
2024-02-21T22:21:38.442Z,11.19
2024-02-21T22:24:45.187Z,11.15
2024-02-21T22:27:47.821Z,11.11
2024-02-21T22:30:50.627Z,11.06
2024-02-21T22:33:58.631Z,11.05
2024-02-21T22:37:01.399Z,11.02
2024-02-21T22:40:04.830Z,10.97
2024-02-21T22:43:07.623Z,10.94
2024-02-21T22:46:10.776Z,10.64
2024-02-21T22:49:14.832Z,10.89
2024-02-21T22:52:18.317Z,10.85
2024-02-21T22:55:21.085Z,10.82
2024-02-21T22:58:23.873Z,10.80
2024-02-21T23:01:26.587Z,10.77
2024-02-21T23:04:30.800Z,10.76
2024-02-21T23:07:33.637Z,10.57
2024-02-21T23:10:36.643Z,10.72
2024-02-21T23:13:40.463Z,10.71
2024-02-21T23:16:43.294Z,10.68
2024-02-21T23:19:47.534Z,10.49
2024-02-21T23:22:50.419Z,10.64
2024-02-21T23:25:53.170Z,10.61
2024-02-21T23:28:55.960Z,10.61
2024-02-21T23:31:58.640Z,10.62
2024-02-21T23:35:02.833Z,10.59
2024-02-21T23:38:10.557Z,10.55
2024-02-21T23:41:17.134Z,10.53
2024-02-21T23:44:20.593Z,10.53
2024-02-21T23:47:23.575Z,10.44
2024-02-21T23:50:27.772Z,10.54
2024-02-21T23:53:30.482Z,10.53
2024-02-21T23:56:33.194Z,10.55
2024-02-21T23:59:36.870Z,10.58
